Time;durP1;ratioP1;P1;durP2;ratioP2;P2;SDS_P1;SDS_P2;PMS_P1;PMS_P2;Temp;Humidity;BMP_temperature;BMP_pressure;BME280_temperature;BME280_humidity;BME280_pressure;Samples;Min_cycle;Max_cycle;Signal;HPM_P1;HPM_P2
2023/07/26 00:00:09;;;;;;;0.10;0.10;;;;;;;20.82;58.58;101127.59;5029677;28;20036;-63
2023/07/26 00:02:35;;;;;;;0.10;0.10;;;;;;;20.90;58.34;101122.34;5029067;28;20042;-66
2023/07/26 00:05:00;;;;;;;0.20;0.20;;;;;;;21.20;57.12;101121.28;5028997;28;20044;-64
2023/07/26 00:07:26;;;;;;;0.10;0.10;;;;;;;20.89;57.40;101114.44;5029189;28;20383;-64
2023/07/26 00:09:51;;;;;;;0.10;0.10;;;;;;;20.27;60.42;101128.00;5011448;28;20040;-64
2023/07/26 00:12:16;;;;;;;0.10;0.10;;;;;;;20.67;58.59;101119.53;5010815;28;20033;-66
2023/07/26 00:14:42;;;;;;;0.10;0.10;;;;;;;20.40;59.00;101117.25;5028977;28;20095;-64
2023/07/26 00:17:07;;;;;;;0.10;0.10;;;;;;;20.27;59.08;101123.38;5029175;28;20037;-65
2023/07/26 00:19:33;;;;;;;0.10;0.10;;;;;;;20.34;59.33;101117.59;5029429;28;20029;-64
2023/07/26 00:21:58;;;;;;;0.10;0.10;;;;;;;20.15;59.90;101115.50;5029478;28;20083;-63
2023/07/26 00:24:23;;;;;;;0.20;0.20;;;;;;;20.37;58.69;101117.84;5029205;28;20077;-63
2023/07/26 00:26:49;;;;;;;0.20;0.20;;;;;;;20.69;57.49;101122.81;5029018;28;20042;-65
2023/07/26 00:29:14;;;;;;;0.10;0.10;;;;;;;20.57;58.10;101123.16;5021939;28;20156;-64
2023/07/26 00:31:41;;;;;;;0.10;0.10;;;;;;;20.74;57.19;101122.75;5028995;28;20021;-63
2023/07/26 00:34:06;;;;;;;0.20;0.20;;;;;;;21.06;56.47;101122.25;5029603;28;20033;-64
2023/07/26 00:36:32;;;;;;;0.10;0.10;;;;;;;20.37;58.32;101122.47;5027404;28;20312;-63
2023/07/26 00:38:57;;;;;;;0.20;0.20;;;;;;;20.69;57.28;101122.81;5022596;28;20069;-66
2023/07/26 00:41:23;;;;;;;0.20;0.20;;;;;;;20.91;56.39;101123.19;5028701;28;20030;-65
2023/07/26 00:43:48;;;;;;;0.10;0.10;;;;;;;19.92;59.07;101124.34;5029035;28;20087;-65
2023/07/26 00:46:13;;;;;;;0.10;0.10;;;;;;;20.77;56.32;101127.66;5022998;28;20269;-64
2023/07/26 00:48:39;;;;;;;0.15;0.15;;;;;;;20.98;55.49;101126.38;5028961;28;20034;-65
2023/07/26 00:51:05;;;;;;;0.20;0.20;;;;;;;20.94;55.34;101122.59;5010789;28;20119;-64
2023/07/26 00:53:31;;;;;;;0.10;0.10;;;;;;;20.57;56.79;101125.06;5029151;28;20038;-64
2023/07/26 00:55:58;;;;;;;0.20;0.20;;;;;;;20.24;57.10;101125.84;5029094;28;20033;-63
2023/07/26 00:58:23;;;;;;;0.20;0.20;;;;;;;20.17;58.45;101125.31;5029124;28;20124;-65
2023/07/26 01:00:50;;;;;;;0.10;0.10;;;;;;;20.43;57.49;101121.34;5028658;28;20044;-63
2023/07/26 01:03:15;;;;;;;0.17;0.17;;;;;;;20.36;57.33;101126.31;5028668;28;20064;-66
2023/07/26 01:05:59;;;;;;;0.10;0.10;;;;;;;20.61;56.73;101118.78;5028882;28;20037;-62
2023/07/26 01:08:57;;;;;;;0.10;0.10;;;;;;;20.46;56.92;101115.34;5028944;28;20021;-63
2023/07/26 01:11:37;;;;;;;0.20;0.20;;;;;;;20.47;56.60;101114.22;4966936;28;20094;-64
2023/07/26 01:14:32;;;;;;;0.20;0.20;;;;;;;20.79;55.76;101115.34;4962763;28;20031;-63
2023/07/26 01:16:58;;;;;;;0.20;0.20;;;;;;;20.43;56.89;101124.09;4962281;28;20058;-62
2023/07/26 01:19:23;;;;;;;0.13;0.13;;;;;;;20.25;57.08;101122.84;4971089;28;20027;-63
2023/07/26 01:21:48;;;;;;;0.10;0.10;;;;;;;20.04;57.34;101124.84;4970705;28;20050;-63
2023/07/26 01:24:14;;;;;;;0.10;0.10;;;;;;;20.06;57.66;101128.09;4970802;28;20106;-63
2023/07/26 01:26:39;;;;;;;0.17;0.17;;;;;;;19.87;57.63;101124.34;4970700;28;20039;-64
2023/07/26 01:29:05;;;;;;;0.10;0.10;;;;;;;20.19;56.75;101134.03;4976897;28;20502;-63
2023/07/26 01:31:30;;;;;;;0.13;0.13;;;;;;;20.17;56.59;101126.13;4990106;28;20042;-64
2023/07/26 01:33:58;;;;;;;0.10;0.10;;;;;;;20.13;56.41;101119.59;4979419;28;20027;-64
2023/07/26 01:36:24;;;;;;;0.13;0.13;;;;;;;20.15;55.51;101115.50;4970669;28;20117;-64
2023/07/26 01:38:51;;;;;;;0.10;0.10;;;;;;;20.28;55.99;101127.75;4954204;28;20474;-63
2023/07/26 01:41:18;;;;;;;0.22;0.22;;;;;;;20.30;55.57;101119.25;4970329;28;20045;-63
2023/07/26 01:43:44;;;;;;;0.17;0.17;;;;;;;20.52;55.00;101125.13;4969992;28;20621;-64
2023/07/26 01:46:11;;;;;;;0.20;0.20;;;;;;;20.08;55.91;101115.00;4970738;28;20034;-64
2023/07/26 01:48:37;;;;;;;0.10;0.10;;;;;;;20.58;54.55;101115.81;5016970;28;20065;-63
2023/07/26 01:51:02;;;;;;;0.10;0.10;;;;;;;20.40;54.57;101120.00;5031533;28;20507;-63
2023/07/26 01:53:27;;;;;;;0.15;0.15;;;;;;;20.30;55.43;101127.44;5031884;28;20553;-65
2023/07/26 01:55:53;;;;;;;0.20;0.20;;;;;;;20.07;55.82;101129.72;5031907;28;20060;-65
2023/07/26 01:58:18;;;;;;;0.10;0.10;;;;;;;20.29;55.44;101121.16;5031934;28;20075;-64
2023/07/26 02:00:44;;;;;;;0.10;0.10;;;;;;;20.16;55.75;101127.22;5029870;28;20401;-66
2023/07/26 02:03:09;;;;;;;0.10;0.10;;;;;;;20.20;55.96;101136.53;5031803;28;20048;-64
2023/07/26 02:05:34;;;;;;;0.20;0.20;;;;;;;19.77;57.43;101139.97;5031879;28;20398;-63
2023/07/26 02:08:00;;;;;;;0.20;0.20;;;;;;;20.03;56.30;101136.00;5031690;28;20036;-63
2023/07/26 02:10:25;;;;;;;0.10;0.10;;;;;;;20.15;56.29;101133.78;5031907;28;20036;-64
2023/07/26 02:12:50;;;;;;;0.20;0.20;;;;;;;19.35;58.40;101134.91;5031955;28;20029;-63
2023/07/26 02:15:16;;;;;;;0.25;0.25;;;;;;;19.29;59.26;101136.78;5024707;28;20482;-63
2023/07/26 02:17:41;;;;;;;0.20;0.20;;;;;;;19.70;58.40;101128.53;5031371;28;20107;-63
2023/07/26 02:20:08;;;;;;;0.10;0.10;;;;;;;19.35;59.26;101132.19;5031379;28;20041;-65
2023/07/26 02:22:33;;;;;;;0.13;0.13;;;;;;;19.19;60.47;101123.19;5031045;28;20022;-63
2023/07/26 02:24:58;;;;;;;0.10;0.10;;;;;;;19.46;59.59;101122.06;5031784;28;20057;-65
2023/07/26 02:27:24;;;;;;;0.10;0.10;;;;;;;18.76;62.05;101120.22;5031319;28;20501;-62
2023/07/26 02:29:49;;;;;;;0.10;0.10;;;;;;;19.18;60.32;101126.97;5026174;28;20124;-64
2023/07/26 02:32:14;;;;;;;0.20;0.20;;;;;;;19.55;58.92;101126.69;5030927;28;20389;-63
2023/07/26 02:34:40;;;;;;;0.10;0.10;;;;;;;19.17;60.48;101130.00;5031176;28;20029;-64
2023/07/26 02:37:05;;;;;;;0.10;0.10;;;;;;;18.92;61.21;101119.94;5031580;28;20028;-64
2023/07/26 02:39:31;;;;;;;0.10;0.10;;;;;;;19.14;60.58;101127.81;5030944;28;20029;-65
2023/07/26 02:41:56;;;;;;;0.20;0.20;;;;;;;19.00;60.89;101127.56;5030822;28;20052;-63
2023/07/26 02:44:21;;;;;;;0.10;0.10;;;;;;;19.24;60.39;101122.38;5030803;28;20034;-63
2023/07/26 02:46:47;;;;;;;0.10;0.10;;;;;;;19.51;59.40;101125.59;5030855;28;20038;-63
2023/07/26 02:49:12;;;;;;;0.10;0.10;;;;;;;19.16;60.25;101126.44;5031607;28;20021;-63
2023/07/26 02:51:38;;;;;;;0.10;0.10;;;;;;;18.89;61.65;101125.94;5031223;28;20092;-63
2023/07/26 02:54:03;;;;;;;0.10;0.10;;;;;;;18.90;62.33;101115.84;5030905;28;20033;-65
2023/07/26 02:56:28;;;;;;;0.10;0.10;;;;;;;18.91;62.05;101129.19;5030855;28;20088;-63
2023/07/26 02:58:54;;;;;;;0.10;0.10;;;;;;;19.44;60.05;101122.34;5030706;28;20033;-65
2023/07/26 03:01:19;;;;;;;0.20;0.20;;;;;;;19.77;58.51;101123.59;5031367;28;20036;-63
2023/07/26 03:03:44;;;;;;;0.17;0.17;;;;;;;19.27;60.63;101113.63;5028598;28;20041;-63
2023/07/26 03:06:11;;;;;;;0.20;0.20;;;;;;;19.22;60.71;101124.56;5030822;28;20083;-63
2023/07/26 03:08:36;;;;;;;0.10;0.10;;;;;;;19.63;59.11;101115.19;5030614;28;20570;-65
2023/07/26 03:11:02;;;;;;;0.20;0.20;;;;;;;19.49;59.37;101124.22;5030484;28;20033;-63
2023/07/26 03:13:27;;;;;;;0.10;0.10;;;;;;;19.60;59.45;101123.09;5030502;28;20469;-65
2023/07/26 03:15:53;;;;;;;0.22;0.22;;;;;;;19.57;59.23;101129.13;5024426;28;20037;-63
2023/07/26 03:18:18;;;;;;;0.17;0.17;;;;;;;19.43;59.37;101118.00;5030438;28;20330;-64
2023/07/26 03:20:45;;;;;;;0.10;0.10;;;;;;;19.59;58.65;101118.75;5030801;28;20060;-63
2023/07/26 03:23:11;;;;;;;0.10;0.10;;;;;;;19.43;59.36;101126.16;5030469;28;20517;-65
2023/07/26 03:25:36;;;;;;;0.10;0.10;;;;;;;19.36;59.65;101122.09;5029842;28;20080;-64
2023/07/26 03:28:03;;;;;;;0.20;0.20;;;;;;;19.49;59.85;101126.97;5030808;28;20377;-62
2023/07/26 03:30:29;;;;;;;0.17;0.17;;;;;;;19.40;60.00;101129.44;5030180;28;20036;-62
2023/07/26 03:32:54;;;;;;;0.20;0.20;;;;;;;19.10;61.59;101132.97;5029967;28;20497;-63
2023/07/26 03:35:19;;;;;;;0.20;0.20;;;;;;;19.24;60.83;101136.78;5023111;28;20037;-66
2023/07/26 03:37:45;;;;;;;0.17;0.17;;;;;;;19.67;59.43;101129.91;5030141;28;20099;-63
2023/07/26 03:40:11;;;;;;;0.30;0.30;;;;;;;19.63;59.78;101128.84;5030088;28;20026;-62
2023/07/26 03:42:36;;;;;;;0.20;0.20;;;;;;;19.69;58.79;101132.34;5029397;28;20068;-62
2023/07/26 03:45:01;;;;;;;0.10;0.10;;;;;;;19.64;59.92;101133.19;5025930;28;20029;-62
2023/07/26 03:47:27;;;;;;;0.17;0.17;;;;;;;19.52;60.65;101127.22;5029766;28;20041;-63
2023/07/26 03:49:52;;;;;;;0.10;0.10;;;;;;;19.50;60.51;101131.34;5029511;28;20030;-63
2023/07/26 03:52:17;;;;;;;0.20;0.20;;;;;;;19.12;61.69;101133.53;5012202;28;20028;-64
2023/07/26 03:54:44;;;;;;;0.10;0.10;;;;;;;19.39;60.69;101140.59;5029558;28;20033;-63
2023/07/26 03:57:09;;;;;;;0.10;0.10;;;;;;;19.20;61.39;101135.69;5011625;28;20064;-64
2023/07/26 03:59:35;;;;;;;0.17;0.17;;;;;;;19.33;60.56;101134.34;5029491;28;20033;-62
2023/07/26 04:02:00;;;;;;;0.10;0.10;;;;;;;19.11;60.84;101137.34;5004514;28;20089;-63
2023/07/26 04:04:25;;;;;;;0.20;0.20;;;;;;;19.19;61.13;101138.72;5028982;28;20029;-65
2023/07/26 04:06:51;;;;;;;0.10;0.10;;;;;;;18.85;62.06;101146.63;5015216;28;20378;-64
2023/07/26 04:09:16;;;;;;;0.20;0.20;;;;;;;19.07;61.70;101151.78;5028840;28;20030;-64
2023/07/26 04:11:41;;;;;;;0.20;0.20;;;;;;;19.07;61.63;101149.06;5025092;28;20033;-64
2023/07/26 04:14:07;;;;;;;0.20;0.20;;;;;;;19.29;60.34;101150.41;5028536;28;20026;-63
2023/07/26 04:16:32;;;;;;;0.13;0.13;;;;;;;19.32;60.51;101159.94;5028325;28;20045;-64
2023/07/26 04:18:57;;;;;;;0.10;0.10;;;;;;;19.61;60.11;101157.47;5029876;28;20022;-63
2023/07/26 04:21:23;;;;;;;0.10;0.10;;;;;;;19.77;59.60;101157.13;5027499;28;20489;-63
2023/07/26 04:23:48;;;;;;;0.10;0.10;;;;;;;19.69;59.50;101163.19;5028608;28;20046;-65
2023/07/26 04:26:14;;;;;;;0.10;0.10;;;;;;;19.27;61.05;101157.22;5029182;28;20033;-64
2023/07/26 04:28:39;;;;;;;0.20;0.20;;;;;;;19.49;60.53;101156.94;5029082;28;20033;-66
2023/07/26 04:31:05;;;;;;;0.13;0.13;;;;;;;19.65;59.59;101153.91;5029543;28;20474;-63
2023/07/26 04:33:30;;;;;;;0.10;0.10;;;;;;;20.10;58.95;101161.09;5029012;28;20527;-63
2023/07/26 04:35:57;;;;;;;0.20;0.20;;;;;;;20.12;58.76;101158.91;5029206;28;20111;-65
2023/07/26 04:38:23;;;;;;;0.10;0.10;;;;;;;20.08;58.26;101157.84;5029026;28;20102;-64
2023/07/26 04:40:49;;;;;;;0.20;0.20;;;;;;;19.88;58.64;101161.47;5029104;28;20516;-64
2023/07/26 04:43:16;;;;;;;0.15;0.15;;;;;;;20.34;57.74;101155.81;5028982;28;20022;-64
2023/07/26 04:45:45;;;;;;;0.20;0.20;;;;;;;20.30;57.87;101162.94;5029118;28;20494;-65
2023/07/26 04:48:10;;;;;;;0.10;0.10;;;;;;;19.81;59.73;101162.88;5029054;28;20029;-64
2023/07/26 04:50:36;;;;;;;0.10;0.10;;;;;;;20.03;58.44;101157.84;5028986;28;20041;-64
2023/07/26 04:53:01;;;;;;;0.10;0.10;;;;;;;19.91;59.74;101160.09;5031738;28;20033;-64
2023/07/26 04:55:26;;;;;;;0.20;0.20;;;;;;;20.27;57.98;101160.75;5033166;28;20071;-63
2023/07/26 04:57:52;;;;;;;0.10;0.10;;;;;;;20.39;58.58;101172.16;5033182;28;20033;-64
2023/07/26 05:00:17;;;;;;;0.10;0.10;;;;;;;20.10;59.24;101170.09;5032780;28;20452;-64
2023/07/26 05:02:43;;;;;;;0.10;0.10;;;;;;;20.01;59.06;101160.84;5032666;28;20037;-65
2023/07/26 05:05:08;;;;;;;0.20;0.20;;;;;;;20.13;59.05;101158.63;5032921;28;20504;-64
2023/07/26 05:07:34;;;;;;;0.10;0.10;;;;;;;20.24;59.19;101161.31;5032740;28;20029;-63
2023/07/26 05:10:00;;;;;;;0.20;0.20;;;;;;;20.38;58.79;101162.34;5031148;28;20033;-63
2023/07/26 05:12:25;;;;;;;0.17;0.17;;;;;;;20.22;59.04;101164.34;5032751;28;20033;-64
2023/07/26 05:14:50;;;;;;;0.10;0.10;;;;;;;20.36;59.21;101170.00;5032550;28;20041;-63
2023/07/26 05:17:17;;;;;;;0.10;0.10;;;;;;;20.63;59.44;101164.91;5014978;28;20042;-63
2023/07/26 05:19:42;;;;;;;0.10;0.10;;;;;;;20.37;61.48;101158.78;5008460;28;20061;-63
2023/07/26 05:22:07;;;;;;;0.10;0.10;;;;;;;20.61;60.55;101154.28;5031434;28;20036;-64
2023/07/26 05:24:33;;;;;;;0.10;0.10;;;;;;;20.47;60.43;101156.00;5032082;28;20064;-64
2023/07/26 05:26:59;;;;;;;0.10;0.10;;;;;;;20.40;61.27;101157.41;5014538;28;20535;-65
2023/07/26 05:29:25;;;;;;;0.20;0.20;;;;;;;20.83;60.35;101153.84;5032228;28;20429;-63
2023/07/26 05:31:50;;;;;;;0.10;0.10;;;;;;;20.79;60.69;101152.78;5032175;28;20072;-64
2023/07/26 05:34:16;;;;;;;0.10;0.10;;;;;;;20.76;61.26;101147.88;5032569;28;20021;-64
2023/07/26 05:36:41;;;;;;;0.20;0.20;;;;;;;20.69;61.23;101155.59;5032037;28;20045;-66
2023/07/26 05:39:07;;;;;;;0.10;0.10;;;;;;;20.41;60.70;101170.78;5031824;28;20033;-64
2023/07/26 05:41:32;;;;;;;0.10;0.10;;;;;;;20.52;60.34;101168.81;5031881;28;20021;-65
2023/07/26 05:43:59;;;;;;;0.10;0.10;;;;;;;20.95;59.13;101165.22;5031526;28;20032;-65
2023/07/26 05:46:25;;;;;;;0.17;0.17;;;;;;;20.63;60.88;101157.53;5031890;28;20489;-65
2023/07/26 05:48:50;;;;;;;0.10;0.10;;;;;;;20.70;60.82;101158.03;5032098;28;20049;-65
2023/07/26 05:51:15;;;;;;;0.20;0.20;;;;;;;21.06;60.26;101160.50;5032168;28;20413;-64
2023/07/26 05:53:41;;;;;;;0.10;0.10;;;;;;;20.93;60.63;101161.97;5031892;28;20091;-64
2023/07/26 05:56:06;;;;;;;0.10;0.10;;;;;;;21.10;60.13;101158.81;5031737;28;20037;-63
2023/07/26 05:58:32;;;;;;;0.20;0.20;;;;;;;20.80;61.26;101162.59;5031469;28;20091;-62
2023/07/26 06:00:57;;;;;;;0.10;0.10;;;;;;;21.23;59.55;101152.72;5032377;28;20030;-64
2023/07/26 06:03:22;;;;;;;0.10;0.10;;;;;;;21.27;59.25;101161.94;5028697;28;20189;-64
2023/07/26 06:05:48;;;;;;;0.20;0.20;;;;;;;21.05;59.96;101162.41;5031827;28;20099;-65
2023/07/26 06:08:14;;;;;;;0.10;0.10;;;;;;;21.18;58.95;101164.50;5029275;28;20041;-65
2023/07/26 06:10:39;;;;;;;0.10;0.10;;;;;;;21.26;58.57;101168.53;5031739;28;20473;-63
2023/07/26 06:13:05;;;;;;;0.10;0.10;;;;;;;21.64;57.36;101168.38;5023804;28;20483;-64
2023/07/26 06:15:30;;;;;;;0.10;0.10;;;;;;;21.22;58.74;101167.47;5030941;28;20041;-63
2023/07/26 06:17:56;;;;;;;0.10;0.10;;;;;;;21.32;59.38;101181.88;5031515;28;20034;-65
2023/07/26 06:20:21;;;;;;;0.10;0.10;;;;;;;21.49;59.09;101178.66;5031444;28;20414;-64
2023/07/26 06:22:47;;;;;;;0.10;0.10;;;;;;;21.31;59.12;101185.69;5031099;28;20042;-64
2023/07/26 06:25:12;;;;;;;0.20;0.20;;;;;;;21.28;58.69;101186.28;5031245;28;20100;-65
2023/07/26 06:27:38;;;;;;;0.10;0.10;;;;;;;21.10;59.21;101186.16;5031071;28;20398;-63
2023/07/26 06:30:04;;;;;;;0.20;0.20;;;;;;;21.43;58.75;101188.03;5031029;28;20413;-63
2023/07/26 06:32:29;;;;;;;0.10;0.10;;;;;;;21.72;58.40;101186.06;5031295;28;20383;-66
2023/07/26 06:34:56;;;;;;;0.10;0.10;;;;;;;21.51;58.88;101195.59;5024108;28;20118;-62
2023/07/26 06:37:22;;;;;;;0.10;0.10;;;;;;;21.80;57.45;101202.72;5031776;28;20083;-65
2023/07/26 06:39:47;;;;;;;0.10;0.10;;;;;;;21.67;58.23;101208.03;5031037;28;20041;-64
2023/07/26 06:42:13;;;;;;;0.10;0.10;;;;;;;22.05;57.13;101206.25;5030735;28;20041;-63
2023/07/26 06:44:39;;;;;;;0.10;0.10;;;;;;;21.95;57.36;101209.94;5026693;28;20045;-64
2023/07/26 06:47:06;;;;;;;0.20;0.20;;;;;;;21.72;58.25;101217.00;5030583;28;20112;-64
2023/07/26 06:49:31;;;;;;;0.10;0.10;;;;;;;21.82;58.14;101210.63;5030667;28;20040;-63
2023/07/26 06:51:56;;;;;;;0.10;0.10;;;;;;;21.60;58.54;101221.25;5012922;28;20041;-63
2023/07/26 06:54:22;;;;;;;0.10;0.10;;;;;;;20.84;60.81;101221.84;5030900;28;20037;-63
2023/07/26 06:56:47;;;;;;;0.10;0.10;;;;;;;21.03;60.26;101224.72;5012873;28;20034;-65
2023/07/26 06:59:13;;;;;;;0.10;0.10;;;;;;;21.20;59.58;101221.59;5030634;28;20087;-65
2023/07/26 07:01:39;;;;;;;0.10;0.10;;;;;;;21.11;60.79;101231.53;5025984;28;20026;-65
2023/07/26 07:04:04;;;;;;;0.10;0.10;;;;;;;20.42;64.04;101250.78;5036745;28;20472;-66
2023/07/26 07:06:29;;;;;;;0.13;0.13;;;;;;;20.40;63.89;101259.22;5046000;28;20085;-65
2023/07/26 07:08:55;;;;;;;0.10;0.10;;;;;;;19.60;68.35;101273.06;5044658;28;20028;-65
2023/07/26 07:11:20;;;;;;;0.20;0.20;;;;;;;18.37;73.96;101266.81;5041495;28;20037;-67
2023/07/26 07:13:46;;;;;;;0.10;0.10;;;;;;;18.30;74.88;101274.41;5045961;28;20033;-64
2023/07/26 07:16:11;;;;;;;0.15;0.15;;;;;;;18.08;77.03;101271.06;5043158;28;20048;-65
2023/07/26 07:18:37;;;;;;;0.20;0.20;;;;;;;18.57;74.34;101264.22;5045397;28;20559;-65
2023/07/26 07:21:03;;;;;;;0.10;0.10;;;;;;;18.38;75.72;101269.28;5050135;28;20025;-64
2023/07/26 07:23:29;;;;;;;0.10;0.10;;;;;;;18.72;74.57;101266.97;5042069;28;20029;-66
2023/07/26 07:25:55;;;;;;;0.10;0.10;;;;;;;18.70;75.73;101262.88;5028079;28;20041;-64
2023/07/26 07:28:21;;;;;;;0.10;0.10;;;;;;;18.37;75.68;101266.81;5028513;28;20449;-63
2023/07/26 07:30:46;;;;;;;0.10;0.10;;;;;;;19.12;73.55;101269.75;5025304;28;20052;-64
2023/07/26 07:33:11;;;;;;;0.10;0.10;;;;;;;18.69;75.26;101263.97;5026564;28;20469;-64
2023/07/26 07:35:38;;;;;;;0.20;0.20;;;;;;;19.47;72.47;101260.81;5026792;28;20045;-66
2023/07/26 07:38:04;;;;;;;0.10;0.10;;;;;;;19.80;71.16;101270.31;5027691;28;20489;-66
2023/07/26 07:40:29;;;;;;;0.20;0.20;;;;;;;19.56;72.40;101261.06;5020942;28;20076;-65
2023/07/26 07:42:54;;;;;;;0.10;0.10;;;;;;;19.83;71.93;101258.88;5016692;28;20022;-65
2023/07/26 07:45:20;;;;;;;0.20;0.20;;;;;;;19.35;73.21;101254.81;5008389;28;20447;-64
2023/07/26 07:47:45;;;;;;;0.20;0.20;;;;;;;19.41;73.07;101261.09;5018749;28;20049;-64
2023/07/26 07:50:11;;;;;;;0.15;0.15;;;;;;;20.07;71.41;101249.78;5022582;28;20405;-64
2023/07/26 07:52:36;;;;;;;0.20;0.20;;;;;;;20.13;71.14;101251.41;5027592;28;20527;-65
2023/07/26 07:55:02;;;;;;;0.20;0.20;;;;;;;19.99;72.62;101257.72;5027404;28;20095;-64
2023/07/26 07:57:28;;;;;;;0.10;0.10;;;;;;;20.08;72.05;101251.44;5024644;28;20474;-64
2023/07/26 07:59:53;;;;;;;0.20;0.20;;;;;;;19.69;74.25;101242.25;5029158;28;20030;-64
2023/07/26 08:02:19;;;;;;;0.20;0.20;;;;;;;20.02;74.17;101248.97;5024761;28;20034;-66
2023/07/26 08:04:44;;;;;;;0.15;0.15;;;;;;;19.48;73.64;101251.53;5026701;28;20038;-65
2023/07/26 08:07:09;;;;;;;0.10;0.10;;;;;;;19.90;73.13;101251.19;5025739;28;20032;-63
2023/07/26 08:09:35;;;;;;;0.10;0.10;;;;;;;19.36;73.85;101247.47;5027743;28;20481;-65
2023/07/26 08:12:00;;;;;;;0.10;0.10;;;;;;;19.18;73.57;101235.97;5026590;28;20041;-64
2023/07/26 08:14:26;;;;;;;0.10;0.10;;;;;;;19.69;74.30;101238.69;5026609;28;20075;-66
2023/07/26 08:16:52;;;;;;;0.10;0.10;;;;;;;19.84;73.32;101250.41;5019019;28;20509;-66
2023/07/26 08:19:17;;;;;;;0.10;0.10;;;;;;;20.43;71.44;101246.94;5022306;28;20352;-64
2023/07/26 08:21:42;;;;;;;0.15;0.15;;;;;;;20.26;70.72;101254.66;5009552;28;20038;-65
2023/07/26 08:24:08;;;;;;;0.10;0.10;;;;;;;21.06;69.13;101245.22;5009349;28;20053;-65
2023/07/26 08:26:33;;;;;;;0.10;0.10;;;;;;;21.53;67.85;101242.63;5018089;28;20083;-64
2023/07/26 08:28:59;;;;;;;0.10;0.10;;;;;;;21.89;65.75;101234.91;5025327;28;20037;-64
2023/07/26 08:31:24;;;;;;;0.10;0.10;;;;;;;21.79;67.91;101241.28;5019026;28;20025;-65
2023/07/26 08:33:49;;;;;;;0.10;0.10;;;;;;;21.27;66.99;101255.72;5011075;28;20026;-65
2023/07/26 08:36:15;;;;;;;0.10;0.10;;;;;;;21.41;66.59;101250.38;5013466;28;20033;-65
2023/07/26 08:38:40;;;;;;;0.20;0.20;;;;;;;20.80;70.57;101255.47;5010816;28;20042;-66
2023/07/26 08:41:07;;;;;;;0.10;0.10;;;;;;;20.48;71.09;101255.13;5012498;28;20061;-64
2023/07/26 08:43:37;;;;;;;0.10;0.10;;;;;;;20.79;70.84;101264.78;5012574;28;20474;-64
2023/07/26 08:46:06;;;;;;;0.10;0.10;;;;;;;20.98;70.36;101257.53;5013051;28;20029;-65
2023/07/26 08:48:32;;;;;;;0.10;0.10;;;;;;;21.00;71.41;101255.34;5012659;28;20041;-66
2023/07/26 08:51:00;;;;;;;0.13;0.13;;;;;;;20.89;70.31;101257.31;5013036;28;20026;-65
2023/07/26 08:53:27;;;;;;;0.10;0.10;;;;;;;21.65;67.42;101259.47;5012620;28;20109;-64
2023/07/26 08:55:53;;;;;;;0.10;0.10;;;;;;;21.28;67.20;101246.41;5012598;28;20025;-65
2023/07/26 08:58:18;;;;;;;0.10;0.10;;;;;;;21.25;66.31;101249.72;5013375;28;20088;-66
2023/07/26 09:00:44;;;;;;;0.10;0.10;;;;;;;20.82;68.50;101243.16;5012466;28;20037;-65
2023/07/26 09:03:13;;;;;;;0.13;0.13;;;;;;;21.11;67.33;101240.53;5009078;28;20052;-65
2023/07/26 09:05:39;;;;;;;0.10;0.10;;;;;;;21.26;67.50;101236.88;5018278;28;20406;-63
2023/07/26 09:08:04;;;;;;;0.10;0.10;;;;;;;20.78;69.25;101250.28;5017689;28;20037;-64
2023/07/26 09:10:31;;;;;;;0.10;0.10;;;;;;;21.36;66.34;101231.31;5013411;28;20024;-64
2023/07/26 09:13:15;;;;;;;0.10;0.10;;;;;;;21.83;65.59;101234.97;5012101;28;20030;-64
2023/07/26 09:15:43;;;;;;;0.10;0.10;;;;;;;21.72;65.60;101232.59;5008553;28;20037;-65
2023/07/26 09:18:09;;;;;;;0.00;0.00;;;;;;;21.54;64.61;101231.41;5008920;28;20407;-65
2023/07/26 09:20:35;;;;;;;0.10;0.10;;;;;;;22.28;63.64;101224.59;5007359;28;20805;-65
2023/07/26 09:23:06;;;;;;;0.00;0.00;;;;;;;22.09;63.96;101229.22;5009644;28;20494;-66
2023/07/26 09:25:37;;;;;;;0.10;0.10;;;;;;;22.58;62.06;101229.69;5022095;28;20046;-65
2023/07/26 09:28:04;;;;;;;0.10;0.10;;;;;;;21.80;63.33;101231.94;5029245;28;20485;-65
2023/07/26 09:30:33;;;;;;;0.10;0.10;;;;;;;21.95;62.73;101228.28;5029770;28;20061;-65
2023/07/26 09:33:01;;;;;;;0.10;0.10;;;;;;;22.07;61.74;101225.94;5030831;28;20030;-65
2023/07/26 09:35:26;;;;;;;0.10;0.10;;;;;;;21.78;62.75;101232.25;5029804;28;20044;-64
2023/07/26 09:37:51;;;;;;;0.10;0.10;;;;;;;22.10;61.32;101228.91;5031571;28;20033;-65
2023/07/26 09:40:30;;;;;;;0.10;0.10;;;;;;;22.65;60.05;101222.72;5035633;28;20025;-65
2023/07/26 09:42:56;;;;;;;0.10;0.10;;;;;;;22.62;56.91;101228.00;5028163;28;20379;-64
2023/07/26 09:45:22;;;;;;;0.10;0.10;;;;;;;23.12;54.04;101226.38;5031146;28;20030;-66
2023/07/26 09:47:47;;;;;;;0.10;0.10;;;;;;;22.90;54.22;101227.00;5032536;28;20030;-67
2023/07/26 09:50:24;;;;;;;0.10;0.10;;;;;;;23.15;53.62;101223.88;5033616;28;20075;-65
2023/07/26 09:52:52;;;;;;;0.10;0.10;;;;;;;22.97;56.37;101224.72;5035331;28;20497;-65
2023/07/26 09:55:19;;;;;;;0.10;0.10;;;;;;;23.71;54.32;101229.22;5035539;28;20029;-63
2023/07/26 09:57:45;;;;;;;0.00;0.00;;;;;;;23.19;54.45;101221.34;5036197;28;20041;-65
2023/07/26 10:00:12;;;;;;;0.03;0.03;;;;;;;22.98;55.09;101215.38;5035788;28;20029;-66
2023/07/26 10:02:38;;;;;;;0.00;0.00;;;;;;;23.28;55.01;101214.06;5031341;28;20065;-64
2023/07/26 10:05:08;;;;;;;0.10;0.10;;;;;;;23.37;51.70;101215.84;5030800;28;20051;-64
2023/07/26 10:07:36;;;;;;;0.10;0.10;;;;;;;23.43;52.19;101211.91;5030709;28;20034;-65
2023/07/26 10:10:06;;;;;;;0.03;0.03;;;;;;;23.82;51.51;101207.91;5028960;28;20035;-64
2023/07/26 10:12:33;;;;;;;0.00;0.00;;;;;;;24.66;49.62;101206.41;5030926;28;20033;-64
2023/07/26 10:15:00;;;;;;;0.00;0.00;;;;;;;23.91;51.32;101212.38;5036458;28;20095;-64
2023/07/26 10:17:26;;;;;;;0.00;0.00;;;;;;;24.49;50.07;101207.03;5045819;28;20021;-63
2023/07/26 10:19:52;;;;;;;0.10;0.10;;;;;;;23.43;52.39;101200.09;5047689;28;20107;-62
2023/07/26 10:22:20;;;;;;;0.10;0.10;;;;;;;23.82;50.59;101199.66;5031944;28;20048;-65
2023/07/26 10:24:45;;;;;;;0.00;0.00;;;;;;;24.07;50.84;101202.75;5030823;28;20133;-65
2023/07/26 10:27:12;;;;;;;0.05;0.05;;;;;;;24.55;50.54;101213.25;5045921;28;20041;-64
2023/07/26 10:29:38;;;;;;;0.03;0.03;;;;;;;23.35;52.15;101211.78;5025047;28;20050;-64
2023/07/26 10:32:06;;;;;;;0.00;0.00;;;;;;;23.94;51.72;101213.69;5029644;28;20037;-65
2023/07/26 10:34:32;;;;;;;0.00;0.00;;;;;;;24.18;51.63;101206.88;5034114;28;21394;-65
2023/07/26 10:36:57;;;;;;;0.00;0.00;;;;;;;23.11;53.39;101203.66;5050920;28;20013;-65
2023/07/26 10:39:33;;;;;;;0.10;0.10;;;;;;;24.15;51.72;101203.94;5050151;28;20087;-64
2023/07/26 10:41:59;;;;;;;0.00;0.00;;;;;;;23.47;52.73;101206.59;5050803;28;20029;-65
2023/07/26 10:44:24;;;;;;;0.00;0.00;;;;;;;24.74;51.28;101200.19;5047078;28;20056;-63
2023/07/26 10:46:52;;;;;;;0.00;0.00;;;;;;;24.61;52.14;101204.56;5050729;28;20052;-64
2023/07/26 10:49:29;;;;;;;0.00;0.00;;;;;;;24.46;50.45;101196.69;5050348;28;20048;-68
2023/07/26 10:51:58;;;;;;;0.00;0.00;;;;;;;24.48;49.90;101194.44;5051275;28;20041;-65
2023/07/26 10:54:41;;;;;;;0.00;0.00;;;;;;;24.40;50.31;101200.66;5050703;28;20091;-67
2023/07/26 10:57:21;;;;;;;0.08;0.08;;;;;;;24.83;49.63;101196.38;5033422;28;20507;-64
2023/07/26 10:59:54;;;;;;;0.00;0.00;;;;;;;24.57;46.08;101191.78;5041435;28;20128;-64
2023/07/26 11:02:38;;;;;;;0.00;0.00;;;;;;;24.73;45.75;101187.56;5043335;28;20056;-64
2023/07/26 11:05:15;;;;;;;0.00;0.00;;;;;;;24.58;47.61;101193.38;5028284;28;20033;-63
2023/07/26 11:08:00;;;;;;;0.00;0.00;;;;;;;25.45;44.32;101193.75;5030144;28;20225;-65
2023/07/26 11:10:33;;;;;;;0.00;0.00;;;;;;;24.96;44.24;101190.00;5028366;28;20465;-63
2023/07/26 11:13:15;;;;;;;0.00;0.00;;;;;;;25.58;43.94;101192.84;5035843;28;20028;-65
2023/07/26 11:15:46;;;;;;;0.00;0.00;;;;;;;25.02;43.05;101199.75;5043930;28;20037;-64
2023/07/26 11:18:11;;;;;;;;;;;;;;;24.88;42.91;101195.47;5023507;28;20033;-63
2023/07/26 11:20:39;;;;;;;0.00;0.00;;;;;;;24.28;45.92;101201.19;5029956;28;19924;-65